sensor_id;sensor_type;location;lat;lon;timestamp;temperature;humidity
29721;DHT22;23665;51.044;3.748;2023-02-08T00:00:43;2.40;99.90
29721;DHT22;23665;51.044;3.748;2023-02-08T00:03:09;2.40;99.90
29721;DHT22;23665;51.044;3.748;2023-02-08T00:05:35;2.40;99.90
29721;DHT22;23665;51.044;3.748;2023-02-08T00:08:00;2.30;99.90
29721;DHT22;23665;51.044;3.748;2023-02-08T00:10:26;2.10;99.90
29721;DHT22;23665;51.044;3.748;2023-02-08T00:12:52;2.00;99.90
29721;DHT22;23665;51.044;3.748;2023-02-08T00:15:18;2.20;99.90
29721;DHT22;23665;51.044;3.748;2023-02-08T00:17:43;2.20;99.90
29721;DHT22;23665;51.044;3.748;2023-02-08T00:20:10;2.30;99.90
29721;DHT22;23665;51.044;3.748;2023-02-08T00:22:36;2.20;99.90
29721;DHT22;23665;51.044;3.748;2023-02-08T00:25:04;2.20;99.90
29721;DHT22;23665;51.044;3.748;2023-02-08T00:27:30;2.20;99.90
29721;DHT22;23665;51.044;3.748;2023-02-08T00:29:56;2.30;99.90
29721;DHT22;23665;51.044;3.748;2023-02-08T00:32:22;2.20;99.90
29721;DHT22;23665;51.044;3.748;2023-02-08T00:34:48;2.20;99.90
29721;DHT22;23665;51.044;3.748;2023-02-08T00:37:13;2.30;99.90
29721;DHT22;23665;51.044;3.748;2023-02-08T00:39:39;2.20;99.90
29721;DHT22;23665;51.044;3.748;2023-02-08T00:42:05;2.20;99.90
29721;DHT22;23665;51.044;3.748;2023-02-08T00:44:31;2.20;99.90
29721;DHT22;23665;51.044;3.748;2023-02-08T00:46:56;2.20;99.90
29721;DHT22;23665;51.044;3.748;2023-02-08T00:49:22;2.10;99.90
29721;DHT22;23665;51.044;3.748;2023-02-08T00:51:48;2.10;99.90
29721;DHT22;23665;51.044;3.748;2023-02-08T00:54:18;2.10;99.90
29721;DHT22;23665;51.044;3.748;2023-02-08T00:56:44;2.10;99.90
29721;DHT22;23665;51.044;3.748;2023-02-08T00:59:10;2.00;99.90
29721;DHT22;23665;51.044;3.748;2023-02-08T01:01:36;1.90;99.90
29721;DHT22;23665;51.044;3.748;2023-02-08T01:04:02;1.90;99.90
29721;DHT22;23665;51.044;3.748;2023-02-08T01:06:28;2.00;99.90
29721;DHT22;23665;51.044;3.748;2023-02-08T01:08:54;2.10;99.90
29721;DHT22;23665;51.044;3.748;2023-02-08T01:11:22;2.20;99.90
29721;DHT22;23665;51.044;3.748;2023-02-08T01:13:51;2.20;99.90
29721;DHT22;23665;51.044;3.748;2023-02-08T01:16:21;2.10;99.90
29721;DHT22;23665;51.044;3.748;2023-02-08T01:18:50;2.20;99.90
29721;DHT22;23665;51.044;3.748;2023-02-08T01:21:19;2.10;99.90
29721;DHT22;23665;51.044;3.748;2023-02-08T01:23:46;2.10;99.90
29721;DHT22;23665;51.044;3.748;2023-02-08T01:26:13;2.10;99.90
29721;DHT22;23665;51.044;3.748;2023-02-08T01:28:39;2.10;99.90
29721;DHT22;23665;51.044;3.748;2023-02-08T01:31:11;2.10;99.90
29721;DHT22;23665;51.044;3.748;2023-02-08T01:33:38;2.10;99.90
29721;DHT22;23665;51.044;3.748;2023-02-08T01:36:04;2.00;99.90
29721;DHT22;23665;51.044;3.748;2023-02-08T01:38:32;1.90;99.90
29721;DHT22;23665;51.044;3.748;2023-02-08T01:40:58;2.00;99.90
29721;DHT22;23665;51.044;3.748;2023-02-08T01:43:27;2.00;99.90
29721;DHT22;23665;51.044;3.748;2023-02-08T01:45:53;2.00;99.90
29721;DHT22;23665;51.044;3.748;2023-02-08T01:48:24;2.00;99.90
29721;DHT22;23665;51.044;3.748;2023-02-08T01:50:57;2.00;99.90
29721;DHT22;23665;51.044;3.748;2023-02-08T01:53:25;2.20;99.90
29721;DHT22;23665;51.044;3.748;2023-02-08T01:55:55;2.00;99.90
29721;DHT22;23665;51.044;3.748;2023-02-08T01:58:23;1.90;99.90
29721;DHT22;23665;51.044;3.748;2023-02-08T02:00:50;1.90;99.90
29721;DHT22;23665;51.044;3.748;2023-02-08T02:03:17;1.90;99.90
29721;DHT22;23665;51.044;3.748;2023-02-08T02:05:51;1.90;99.90
29721;DHT22;23665;51.044;3.748;2023-02-08T02:08:17;1.80;99.90
29721;DHT22;23665;51.044;3.748;2023-02-08T02:10:43;1.70;99.90
29721;DHT22;23665;51.044;3.748;2023-02-08T02:13:23;1.70;99.90
29721;DHT22;23665;51.044;3.748;2023-02-08T02:15:51;1.70;99.90
29721;DHT22;23665;51.044;3.748;2023-02-08T02:18:29;1.70;99.90
29721;DHT22;23665;51.044;3.748;2023-02-08T02:33:07;1.80;99.90
29721;DHT22;23665;51.044;3.748;2023-02-08T02:38:07;1.70;99.90
29721;DHT22;23665;51.044;3.748;2023-02-08T02:43:16;1.70;99.90
29721;DHT22;23665;51.044;3.748;2023-02-08T02:46:25;1.80;99.90
29721;DHT22;23665;51.044;3.748;2023-02-08T02:49:17;1.80;99.90
29721;DHT22;23665;51.044;3.748;2023-02-08T02:51:46;1.40;99.90
29721;DHT22;23665;51.044;3.748;2023-02-08T02:54:37;1.40;99.90
29721;DHT22;23665;51.044;3.748;2023-02-08T02:57:05;1.40;99.90
29721;DHT22;23665;51.044;3.748;2023-02-08T02:59:33;1.50;99.90
29721;DHT22;23665;51.044;3.748;2023-02-08T03:02:01;1.50;99.90
29721;DHT22;23665;51.044;3.748;2023-02-08T03:18:13;1.30;99.90
29721;DHT22;23665;51.044;3.748;2023-02-08T03:20:46;1.30;99.90
29721;DHT22;23665;51.044;3.748;2023-02-08T03:23:23;1.40;99.90
29721;DHT22;23665;51.044;3.748;2023-02-08T03:28:27;1.20;99.90
29721;DHT22;23665;51.044;3.748;2023-02-08T03:33:47;1.00;99.90
29721;DHT22;23665;51.044;3.748;2023-02-08T03:39:03;0.90;99.90
29721;DHT22;23665;51.044;3.748;2023-02-08T03:41:34;1.10;99.90
29721;DHT22;23665;51.044;3.748;2023-02-08T03:44:06;1.30;99.90
29721;DHT22;23665;51.044;3.748;2023-02-08T03:46:38;1.30;99.90
29721;DHT22;23665;51.044;3.748;2023-02-08T03:49:12;1.40;99.90
29721;DHT22;23665;51.044;3.748;2023-02-08T03:51:39;1.30;99.90
29721;DHT22;23665;51.044;3.748;2023-02-08T03:54:11;1.30;99.90
29721;DHT22;23665;51.044;3.748;2023-02-08T03:59:25;1.40;99.90
29721;DHT22;23665;51.044;3.748;2023-02-08T04:02:03;1.40;99.90
29721;DHT22;23665;51.044;3.748;2023-02-08T04:04:33;1.30;99.90
29721;DHT22;23665;51.044;3.748;2023-02-08T04:07:00;0.90;99.90
29721;DHT22;23665;51.044;3.748;2023-02-08T04:09:26;0.70;99.90
29721;DHT22;23665;51.044;3.748;2023-02-08T04:11:51;1.00;99.90
29721;DHT22;23665;51.044;3.748;2023-02-08T04:14:17;1.10;99.90
29721;DHT22;23665;51.044;3.748;2023-02-08T04:16:42;1.10;99.90
29721;DHT22;23665;51.044;3.748;2023-02-08T04:19:08;1.00;99.90
29721;DHT22;23665;51.044;3.748;2023-02-08T04:21:34;1.20;99.90
29721;DHT22;23665;51.044;3.748;2023-02-08T04:24:00;1.10;99.90
29721;DHT22;23665;51.044;3.748;2023-02-08T04:26:26;0.70;99.90
29721;DHT22;23665;51.044;3.748;2023-02-08T04:28:51;0.50;99.90
29721;DHT22;23665;51.044;3.748;2023-02-08T04:31:17;0.40;99.90
29721;DHT22;23665;51.044;3.748;2023-02-08T04:33:43;0.10;99.90
29721;DHT22;23665;51.044;3.748;2023-02-08T04:36:09;0.00;99.90
29721;DHT22;23665;51.044;3.748;2023-02-08T04:38:35;0.20;99.90
29721;DHT22;23665;51.044;3.748;2023-02-08T04:41:00;0.50;99.90
29721;DHT22;23665;51.044;3.748;2023-02-08T04:43:26;0.40;99.90
29721;DHT22;23665;51.044;3.748;2023-02-08T04:45:52;0.40;99.90
29721;DHT22;23665;51.044;3.748;2023-02-08T04:48:19;0.40;99.90
29721;DHT22;23665;51.044;3.748;2023-02-08T04:50:44;0.60;99.90
29721;DHT22;23665;51.044;3.748;2023-02-08T04:53:10;0.80;99.90
29721;DHT22;23665;51.044;3.748;2023-02-08T04:55:36;0.80;99.90
29721;DHT22;23665;51.044;3.748;2023-02-08T04:58:02;0.70;99.90
29721;DHT22;23665;51.044;3.748;2023-02-08T05:00:28;0.30;99.90
29721;DHT22;23665;51.044;3.748;2023-02-08T05:02:55;0.00;99.90
29721;DHT22;23665;51.044;3.748;2023-02-08T05:05:25;0.20;99.90
29721;DHT22;23665;51.044;3.748;2023-02-08T05:07:52;0.30;99.90
29721;DHT22;23665;51.044;3.748;2023-02-08T05:10:17;0.20;99.90
29721;DHT22;23665;51.044;3.748;2023-02-08T05:12:43;0.40;99.90
29721;DHT22;23665;51.044;3.748;2023-02-08T05:15:10;0.60;99.90
29721;DHT22;23665;51.044;3.748;2023-02-08T05:17:35;0.60;99.90
29721;DHT22;23665;51.044;3.748;2023-02-08T05:20:02;0.60;99.90
29721;DHT22;23665;51.044;3.748;2023-02-08T05:22:28;0.60;99.90
29721;DHT22;23665;51.044;3.748;2023-02-08T05:24:53;0.60;99.90
29721;DHT22;23665;51.044;3.748;2023-02-08T05:27:19;0.40;99.90
29721;DHT22;23665;51.044;3.748;2023-02-08T05:29:45;0.40;99.90
29721;DHT22;23665;51.044;3.748;2023-02-08T05:32:11;0.50;99.90
29721;DHT22;23665;51.044;3.748;2023-02-08T05:34:37;0.20;99.90
29721;DHT22;23665;51.044;3.748;2023-02-08T05:37:03;-0.10;99.90
29721;DHT22;23665;51.044;3.748;2023-02-08T05:39:29;-0.10;99.90
29721;DHT22;23665;51.044;3.748;2023-02-08T05:41:54;-0.30;99.90
29721;DHT22;23665;51.044;3.748;2023-02-08T05:44:20;-0.30;99.90
29721;DHT22;23665;51.044;3.748;2023-02-08T05:46:46;-0.20;99.90
29721;DHT22;23665;51.044;3.748;2023-02-08T05:49:11;0.20;99.90
29721;DHT22;23665;51.044;3.748;2023-02-08T05:51:37;0.20;99.90
29721;DHT22;23665;51.044;3.748;2023-02-08T05:54:03;0.10;99.90
29721;DHT22;23665;51.044;3.748;2023-02-08T05:56:29;0.00;99.90
29721;DHT22;23665;51.044;3.748;2023-02-08T05:58:55;0.30;99.90
29721;DHT22;23665;51.044;3.748;2023-02-08T06:01:21;0.50;99.90
29721;DHT22;23665;51.044;3.748;2023-02-08T06:03:46;0.40;99.90
29721;DHT22;23665;51.044;3.748;2023-02-08T06:06:13;0.40;99.90
29721;DHT22;23665;51.044;3.748;2023-02-08T06:08:39;0.30;99.90
29721;DHT22;23665;51.044;3.748;2023-02-08T06:11:05;0.30;99.90
29721;DHT22;23665;51.044;3.748;2023-02-08T06:13:31;0.30;99.90
29721;DHT22;23665;51.044;3.748;2023-02-08T06:15:57;0.30;99.90
29721;DHT22;23665;51.044;3.748;2023-02-08T06:18:23;0.40;99.90
29721;DHT22;23665;51.044;3.748;2023-02-08T06:20:52;0.50;99.90
29721;DHT22;23665;51.044;3.748;2023-02-08T06:23:18;0.50;99.90
29721;DHT22;23665;51.044;3.748;2023-02-08T06:25:44;0.60;99.90
29721;DHT22;23665;51.044;3.748;2023-02-08T06:28:10;0.60;99.90
29721;DHT22;23665;51.044;3.748;2023-02-08T06:30:36;0.60;99.90
29721;DHT22;23665;51.044;3.748;2023-02-08T06:33:03;0.50;99.90
29721;DHT22;23665;51.044;3.748;2023-02-08T06:35:29;0.60;99.90
29721;DHT22;23665;51.044;3.748;2023-02-08T06:37:55;0.60;99.90
29721;DHT22;23665;51.044;3.748;2023-02-08T06:40:21;0.50;99.90
29721;DHT22;23665;51.044;3.748;2023-02-08T06:42:47;0.60;99.90
29721;DHT22;23665;51.044;3.748;2023-02-08T06:45:13;0.60;99.90
29721;DHT22;23665;51.044;3.748;2023-02-08T06:47:39;0.60;99.90
29721;DHT22;23665;51.044;3.748;2023-02-08T06:50:05;0.60;99.90
29721;DHT22;23665;51.044;3.748;2023-02-08T06:52:31;0.40;99.90
29721;DHT22;23665;51.044;3.748;2023-02-08T06:54:56;0.30;99.90
29721;DHT22;23665;51.044;3.748;2023-02-08T06:57:22;-0.10;99.90
29721;DHT22;23665;51.044;3.748;2023-02-08T06:59:48;-0.40;99.90
29721;DHT22;23665;51.044;3.748;2023-02-08T07:02:16;-0.50;99.90
29721;DHT22;23665;51.044;3.748;2023-02-08T07:04:42;-0.20;99.90
29721;DHT22;23665;51.044;3.748;2023-02-08T07:07:11;0.00;99.90
29721;DHT22;23665;51.044;3.748;2023-02-08T07:09:37;0.00;99.90
29721;DHT22;23665;51.044;3.748;2023-02-08T07:12:03;0.10;99.90
29721;DHT22;23665;51.044;3.748;2023-02-08T07:14:34;0.30;99.90
29721;DHT22;23665;51.044;3.748;2023-02-08T07:17:00;0.30;99.90
29721;DHT22;23665;51.044;3.748;2023-02-08T07:19:26;0.30;99.90
29721;DHT22;23665;51.044;3.748;2023-02-08T07:21:53;0.30;99.90
29721;DHT22;23665;51.044;3.748;2023-02-08T07:24:19;0.10;99.90
29721;DHT22;23665;51.044;3.748;2023-02-08T07:26:44;-0.10;99.90
29721;DHT22;23665;51.044;3.748;2023-02-08T07:29:10;0.00;99.90
29721;DHT22;23665;51.044;3.748;2023-02-08T07:31:35;0.20;99.90
29721;DHT22;23665;51.044;3.748;2023-02-08T07:34:01;0.20;99.90
29721;DHT22;23665;51.044;3.748;2023-02-08T07:36:27;0.20;99.90
29721;DHT22;23665;51.044;3.748;2023-02-08T07:38:52;0.30;99.90
29721;DHT22;23665;51.044;3.748;2023-02-08T07:41:18;0.40;99.90
29721;DHT22;23665;51.044;3.748;2023-02-08T07:43:44;0.50;99.90
29721;DHT22;23665;51.044;3.748;2023-02-08T07:46:14;0.60;99.90
29721;DHT22;23665;51.044;3.748;2023-02-08T07:48:40;0.60;99.90
29721;DHT22;23665;51.044;3.748;2023-02-08T07:51:06;0.60;99.90
29721;DHT22;23665;51.044;3.748;2023-02-08T07:53:32;0.80;99.90
29721;DHT22;23665;51.044;3.748;2023-02-08T07:55:58;0.80;99.90
29721;DHT22;23665;51.044;3.748;2023-02-08T07:58:25;0.80;99.90
29721;DHT22;23665;51.044;3.748;2023-02-08T08:00:51;0.80;99.90
29721;DHT22;23665;51.044;3.748;2023-02-08T08:03:16;0.80;99.90
29721;DHT22;23665;51.044;3.748;2023-02-08T08:05:43;0.90;99.90
29721;DHT22;23665;51.044;3.748;2023-02-08T08:08:10;1.00;99.90
29721;DHT22;23665;51.044;3.748;2023-02-08T08:10:36;1.20;99.90
29721;DHT22;23665;51.044;3.748;2023-02-08T08:13:02;1.00;99.90
29721;DHT22;23665;51.044;3.748;2023-02-08T08:15:28;0.90;99.90
29721;DHT22;23665;51.044;3.748;2023-02-08T08:17:54;0.90;99.90
29721;DHT22;23665;51.044;3.748;2023-02-08T08:20:19;0.80;99.90
29721;DHT22;23665;51.044;3.748;2023-02-08T08:22:46;1.00;99.90
29721;DHT22;23665;51.044;3.748;2023-02-08T08:25:12;1.20;99.90
29721;DHT22;23665;51.044;3.748;2023-02-08T08:27:38;1.30;99.90
29721;DHT22;23665;51.044;3.748;2023-02-08T08:30:10;1.30;99.90
29721;DHT22;23665;51.044;3.748;2023-02-08T08:32:37;1.40;99.90
29721;DHT22;23665;51.044;3.748;2023-02-08T08:35:04;1.40;99.90
29721;DHT22;23665;51.044;3.748;2023-02-08T08:37:30;1.50;99.90
29721;DHT22;23665;51.044;3.748;2023-02-08T08:39:56;1.70;99.90
29721;DHT22;23665;51.044;3.748;2023-02-08T08:42:22;1.70;99.90
29721;DHT22;23665;51.044;3.748;2023-02-08T08:44:48;1.70;99.90
29721;DHT22;23665;51.044;3.748;2023-02-08T08:47:14;1.70;99.90
29721;DHT22;23665;51.044;3.748;2023-02-08T08:49:40;1.80;99.90
29721;DHT22;23665;51.044;3.748;2023-02-08T08:52:07;1.90;99.90
29721;DHT22;23665;51.044;3.748;2023-02-08T08:54:33;2.00;99.90
29721;DHT22;23665;51.044;3.748;2023-02-08T08:56:59;2.00;99.90
29721;DHT22;23665;51.044;3.748;2023-02-08T08:59:25;2.20;99.90
29721;DHT22;23665;51.044;3.748;2023-02-08T09:01:51;2.30;99.90
29721;DHT22;23665;51.044;3.748;2023-02-08T09:04:17;2.40;99.90
29721;DHT22;23665;51.044;3.748;2023-02-08T09:06:43;2.30;99.90
29721;DHT22;23665;51.044;3.748;2023-02-08T09:09:09;2.20;99.90
29721;DHT22;23665;51.044;3.748;2023-02-08T09:11:35;2.40;99.90
29721;DHT22;23665;51.044;3.748;2023-02-08T09:14:02;2.50;99.90
29721;DHT22;23665;51.044;3.748;2023-02-08T09:16:28;2.60;99.90
29721;DHT22;23665;51.044;3.748;2023-02-08T09:18:54;2.70;99.90
29721;DHT22;23665;51.044;3.748;2023-02-08T09:21:22;3.00;99.90
29721;DHT22;23665;51.044;3.748;2023-02-08T09:23:50;3.00;99.90
29721;DHT22;23665;51.044;3.748;2023-02-08T09:26:17;3.10;99.90
29721;DHT22;23665;51.044;3.748;2023-02-08T09:28:44;3.30;97.70
29721;DHT22;23665;51.044;3.748;2023-02-08T09:31:22;3.30;86.00
29721;DHT22;23665;51.044;3.748;2023-02-08T09:33:49;3.30;82.20
29721;DHT22;23665;51.044;3.748;2023-02-08T09:36:16;3.50;85.50
29721;DHT22;23665;51.044;3.748;2023-02-08T09:38:43;3.70;67.40
29721;DHT22;23665;51.044;3.748;2023-02-08T09:46:21;4.20;23.60
29721;DHT22;23665;51.044;3.748;2023-02-08T09:48:52;4.20;21.40
29721;DHT22;23665;51.044;3.748;2023-02-08T09:54:23;4.20;37.00
29721;DHT22;23665;51.044;3.748;2023-02-08T09:56:51;4.20;24.20
29721;DHT22;23665;51.044;3.748;2023-02-08T09:59:24;4.30;18.50
29721;DHT22;23665;51.044;3.748;2023-02-08T10:01:58;4.40;18.50
29721;DHT22;23665;51.044;3.748;2023-02-08T10:05:06;4.40;15.40
29721;DHT22;23665;51.044;3.748;2023-02-08T10:07:31;4.40;26.90
29721;DHT22;23665;51.044;3.748;2023-02-08T10:10:00;4.40;12.00
29721;DHT22;23665;51.044;3.748;2023-02-08T10:16:03;4.90;5.30
29721;DHT22;23665;51.044;3.748;2023-02-08T10:18:27;5.10;1.00
29721;DHT22;23665;51.044;3.748;2023-02-08T10:21:02;5.40;1.00
29721;DHT22;23665;51.044;3.748;2023-02-08T10:23:55;5.60;1.00
29721;DHT22;23665;51.044;3.748;2023-02-08T10:27:03;5.90;1.00
29721;DHT22;23665;51.044;3.748;2023-02-08T10:35:10;6.40;1.00
29721;DHT22;23665;51.044;3.748;2023-02-08T10:37:41;6.30;1.00
29721;DHT22;23665;51.044;3.748;2023-02-08T10:40:25;6.40;1.00
29721;DHT22;23665;51.044;3.748;2023-02-08T10:46:21;6.90;1.00
29721;DHT22;23665;51.044;3.748;2023-02-08T10:51:20;7.10;1.00
29721;DHT22;23665;51.044;3.748;2023-02-08T10:53:47;7.20;1.00
29721;DHT22;23665;51.044;3.748;2023-02-08T10:58:54;6.80;1.00
29721;DHT22;23665;51.044;3.748;2023-02-08T11:01:20;7.20;1.00
29721;DHT22;23665;51.044;3.748;2023-02-08T11:04:08;7.20;1.00
29721;DHT22;23665;51.044;3.748;2023-02-08T11:06:35;7.60;1.00
29721;DHT22;23665;51.044;3.748;2023-02-08T11:09:02;7.80;1.00
29721;DHT22;23665;51.044;3.748;2023-02-08T11:11:34;8.00;1.00
29721;DHT22;23665;51.044;3.748;2023-02-08T11:14:12;8.30;1.00
29721;DHT22;23665;51.044;3.748;2023-02-08T11:16:40;7.90;99.00
29721;DHT22;23665;51.044;3.748;2023-02-08T11:19:06;7.60;99.90
29721;DHT22;23665;51.044;3.748;2023-02-08T11:21:48;7.90;99.90
29721;DHT22;23665;51.044;3.748;2023-02-08T11:24:22;8.10;99.90
29721;DHT22;23665;51.044;3.748;2023-02-08T11:26:51;8.20;99.90
29721;DHT22;23665;51.044;3.748;2023-02-08T11:29:25;8.60;99.90
29721;DHT22;23665;51.044;3.748;2023-02-08T11:31:58;8.70;99.90
29721;DHT22;23665;51.044;3.748;2023-02-08T11:36:53;9.10;99.90
29721;DHT22;23665;51.044;3.748;2023-02-08T11:39:24;9.30;99.90
29721;DHT22;23665;51.044;3.748;2023-02-08T11:41:54;9.50;99.90
29721;DHT22;23665;51.044;3.748;2023-02-08T11:44:36;9.20;99.90
29721;DHT22;23665;51.044;3.748;2023-02-08T11:47:07;9.30;99.90
29721;DHT22;23665;51.044;3.748;2023-02-08T11:49:38;9.60;99.90
29721;DHT22;23665;51.044;3.748;2023-02-08T11:52:18;9.70;99.90
29721;DHT22;23665;51.044;3.748;2023-02-08T11:54:45;9.40;96.40
29721;DHT22;23665;51.044;3.748;2023-02-08T11:57:22;9.40;96.50
29721;DHT22;23665;51.044;3.748;2023-02-08T11:59:50;9.40;97.30
29721;DHT22;23665;51.044;3.748;2023-02-08T12:05:23;9.60;93.60
29721;DHT22;23665;51.044;3.748;2023-02-08T12:15:59;10.50;85.90
29721;DHT22;23665;51.044;3.748;2023-02-08T12:21:18;10.30;81.70
29721;DHT22;23665;51.044;3.748;2023-02-08T12:23:50;10.20;83.80
29721;DHT22;23665;51.044;3.748;2023-02-08T12:29:26;10.00;85.40
29721;DHT22;23665;51.044;3.748;2023-02-08T12:32:02;10.30;85.30
29721;DHT22;23665;51.044;3.748;2023-02-08T12:34:58;10.60;85.70
29721;DHT22;23665;51.044;3.748;2023-02-08T12:37:40;10.60;83.20
29721;DHT22;23665;51.044;3.748;2023-02-08T12:54:31;10.80;68.20
29721;DHT22;23665;51.044;3.748;2023-02-08T12:56:58;10.50;70.10
29721;DHT22;23665;51.044;3.748;2023-02-08T12:59:39;10.50;70.70
29721;DHT22;23665;51.044;3.748;2023-02-08T13:02:18;10.60;69.00
29721;DHT22;23665;51.044;3.748;2023-02-08T13:04:52;10.80;69.30
29721;DHT22;23665;51.044;3.748;2023-02-08T13:07:37;10.80;66.30
29721;DHT22;23665;51.044;3.748;2023-02-08T13:10:32;10.80;63.90
29721;DHT22;23665;51.044;3.748;2023-02-08T13:13:18;10.80;64.50
29721;DHT22;23665;51.044;3.748;2023-02-08T13:15:56;10.80;64.70
29721;DHT22;23665;51.044;3.748;2023-02-08T13:18:36;11.00;63.40
29721;DHT22;23665;51.044;3.748;2023-02-08T13:21:07;10.80;61.80
29721;DHT22;23665;51.044;3.748;2023-02-08T13:23:39;11.10;61.50
29721;DHT22;23665;51.044;3.748;2023-02-08T13:26:18;11.50;61.00
29721;DHT22;23665;51.044;3.748;2023-02-08T13:28:50;11.70;60.60
29721;DHT22;23665;51.044;3.748;2023-02-08T13:31:57;11.70;59.40
29721;DHT22;23665;51.044;3.748;2023-02-08T13:37:02;11.20;55.70
29721;DHT22;23665;51.044;3.748;2023-02-08T13:42:03;11.00;56.10
29721;DHT22;23665;51.044;3.748;2023-02-08T13:44:38;11.30;55.00
29721;DHT22;23665;51.044;3.748;2023-02-08T13:47:05;11.60;54.70
29721;DHT22;23665;51.044;3.748;2023-02-08T13:50:00;11.80;53.50
29721;DHT22;23665;51.044;3.748;2023-02-08T13:58:36;11.20;52.80
29721;DHT22;23665;51.044;3.748;2023-02-08T14:01:26;10.70;54.10
29721;DHT22;23665;51.044;3.748;2023-02-08T14:07:26;10.60;54.30
29721;DHT22;23665;51.044;3.748;2023-02-08T14:12:55;10.70;53.90
29721;DHT22;23665;51.044;3.748;2023-02-08T14:15:25;11.20;53.50
29721;DHT22;23665;51.044;3.748;2023-02-08T14:17:54;11.70;52.30
29721;DHT22;23665;51.044;3.748;2023-02-08T14:20:54;11.70;51.20
29721;DHT22;23665;51.044;3.748;2023-02-08T14:23:25;11.80;51.20
29721;DHT22;23665;51.044;3.748;2023-02-08T14:25:56;11.90;51.50
29721;DHT22;23665;51.044;3.748;2023-02-08T14:30:56;11.80;51.50
29721;DHT22;23665;51.044;3.748;2023-02-08T14:33:49;11.70;52.60
29721;DHT22;23665;51.044;3.748;2023-02-08T14:36:25;11.70;51.00
29721;DHT22;23665;51.044;3.748;2023-02-08T14:39:21;11.50;50.90
29721;DHT22;23665;51.044;3.748;2023-02-08T14:41:51;11.30;51.50
29721;DHT22;23665;51.044;3.748;2023-02-08T14:47:50;11.30;50.00
29721;DHT22;23665;51.044;3.748;2023-02-08T14:50:11;11.10;51.20
29721;DHT22;23665;51.044;3.748;2023-02-08T14:52:42;11.10;50.60
29721;DHT22;23665;51.044;3.748;2023-02-08T14:55:20;11.10;50.40
29721;DHT22;23665;51.044;3.748;2023-02-08T14:57:53;11.10;50.60
29721;DHT22;23665;51.044;3.748;2023-02-08T15:00:26;10.80;51.50
29721;DHT22;23665;51.044;3.748;2023-02-08T15:02:53;10.80;51.30
29721;DHT22;23665;51.044;3.748;2023-02-08T15:05:34;10.80;53.80
29721;DHT22;23665;51.044;3.748;2023-02-08T15:08:03;10.60;54.30
29721;DHT22;23665;51.044;3.748;2023-02-08T15:10:30;10.30;53.70
29721;DHT22;23665;51.044;3.748;2023-02-08T15:12:59;10.30;54.70
29721;DHT22;23665;51.044;3.748;2023-02-08T15:15:36;10.40;55.50
29721;DHT22;23665;51.044;3.748;2023-02-08T15:18:05;10.50;54.40
29721;DHT22;23665;51.044;3.748;2023-02-08T15:20:34;10.60;54.90
29721;DHT22;23665;51.044;3.748;2023-02-08T15:23:26;10.80;54.10
29721;DHT22;23665;51.044;3.748;2023-02-08T15:25:58;10.70;54.00
29721;DHT22;23665;51.044;3.748;2023-02-08T15:28:26;10.50;56.10
29721;DHT22;23665;51.044;3.748;2023-02-08T15:31:01;10.20;56.20
29721;DHT22;23665;51.044;3.748;2023-02-08T15:33:30;10.00;56.50
29721;DHT22;23665;51.044;3.748;2023-02-08T15:36:08;9.90;56.00
29721;DHT22;23665;51.044;3.748;2023-02-08T15:38:41;10.10;55.50
29721;DHT22;23665;51.044;3.748;2023-02-08T15:41:24;10.40;55.60
29721;DHT22;23665;51.044;3.748;2023-02-08T15:43:50;10.40;56.10
29721;DHT22;23665;51.044;3.748;2023-02-08T15:46:25;10.50;55.70
29721;DHT22;23665;51.044;3.748;2023-02-08T15:48:52;10.40;55.90
29721;DHT22;23665;51.044;3.748;2023-02-08T15:51:19;10.30;56.80
29721;DHT22;23665;51.044;3.748;2023-02-08T15:53:50;10.20;56.50
29721;DHT22;23665;51.044;3.748;2023-02-08T15:56:20;10.20;56.00
29721;DHT22;23665;51.044;3.748;2023-02-08T15:58:52;10.00;56.10
29721;DHT22;23665;51.044;3.748;2023-02-08T16:01:20;10.00;56.40
29721;DHT22;23665;51.044;3.748;2023-02-08T16:03:54;9.90;56.00
29721;DHT22;23665;51.044;3.748;2023-02-08T16:06:24;9.80;57.00
29721;DHT22;23665;51.044;3.748;2023-02-08T16:08:51;9.70;57.70
29721;DHT22;23665;51.044;3.748;2023-02-08T16:11:32;9.60;58.50
29721;DHT22;23665;51.044;3.748;2023-02-08T16:14:00;9.80;58.80
29721;DHT22;23665;51.044;3.748;2023-02-08T16:16:41;9.70;58.80
29721;DHT22;23665;51.044;3.748;2023-02-08T16:19:23;9.50;59.20
29721;DHT22;23665;51.044;3.748;2023-02-08T16:21:50;9.40;59.80
29721;DHT22;23665;51.044;3.748;2023-02-08T16:27:19;9.20;60.10
29721;DHT22;23665;51.044;3.748;2023-02-08T16:29:50;9.10;62.10
29721;DHT22;23665;51.044;3.748;2023-02-08T16:34:53;9.00;62.70
29721;DHT22;23665;51.044;3.748;2023-02-08T16:37:37;8.90;64.80
29721;DHT22;23665;51.044;3.748;2023-02-08T16:40:31;8.80;64.80
29721;DHT22;23665;51.044;3.748;2023-02-08T16:42:52;8.70;67.90
29721;DHT22;23665;51.044;3.748;2023-02-08T16:45:19;8.60;69.00
29721;DHT22;23665;51.044;3.748;2023-02-08T16:47:54;8.50;70.10
29721;DHT22;23665;51.044;3.748;2023-02-08T16:50:23;8.30;71.30
29721;DHT22;23665;51.044;3.748;2023-02-08T16:52:57;8.20;72.10
29721;DHT22;23665;51.044;3.748;2023-02-08T16:55:26;8.00;72.60
29721;DHT22;23665;51.044;3.748;2023-02-08T16:57:54;7.90;73.60
29721;DHT22;23665;51.044;3.748;2023-02-08T17:00:24;7.80;74.20
29721;DHT22;23665;51.044;3.748;2023-02-08T17:02:51;7.70;75.30
29721;DHT22;23665;51.044;3.748;2023-02-08T17:05:19;7.70;77.10
29721;DHT22;23665;51.044;3.748;2023-02-08T17:07:45;7.60;78.30
29721;DHT22;23665;51.044;3.748;2023-02-08T17:10:31;7.60;79.20
29721;DHT22;23665;51.044;3.748;2023-02-08T17:12:58;7.50;83.10
29721;DHT22;23665;51.044;3.748;2023-02-08T17:15:24;7.40;86.50
29721;DHT22;23665;51.044;3.748;2023-02-08T17:17:51;7.20;87.80
29721;DHT22;23665;51.044;3.748;2023-02-08T17:20:18;7.20;90.00
29721;DHT22;23665;51.044;3.748;2023-02-08T17:22:44;7.30;91.00
29721;DHT22;23665;51.044;3.748;2023-02-08T17:25:10;7.20;90.70
29721;DHT22;23665;51.044;3.748;2023-02-08T17:27:39;7.30;91.70
29721;DHT22;23665;51.044;3.748;2023-02-08T17:30:05;7.30;90.60
29721;DHT22;23665;51.044;3.748;2023-02-08T17:32:31;7.20;8.90
29721;DHT22;23665;51.044;3.748;2023-02-08T17:34:57;7.10;1.00
29721;DHT22;23665;51.044;3.748;2023-02-08T17:37:24;7.10;1.00
29721;DHT22;23665;51.044;3.748;2023-02-08T17:39:50;7.10;1.00
29721;DHT22;23665;51.044;3.748;2023-02-08T17:42:16;7.00;1.00
29721;DHT22;23665;51.044;3.748;2023-02-08T17:44:43;7.00;1.00
29721;DHT22;23665;51.044;3.748;2023-02-08T17:47:09;6.80;93.30
29721;DHT22;23665;51.044;3.748;2023-02-08T17:49:35;6.80;1.00
29721;DHT22;23665;51.044;3.748;2023-02-08T17:52:00;6.80;1.00
29721;DHT22;23665;51.044;3.748;2023-02-08T17:54:26;6.90;99.90
29721;DHT22;23665;51.044;3.748;2023-02-08T17:56:52;6.80;99.90
29721;DHT22;23665;51.044;3.748;2023-02-08T17:59:20;6.70;99.90
29721;DHT22;23665;51.044;3.748;2023-02-08T18:01:48;6.60;1.00
29721;DHT22;23665;51.044;3.748;2023-02-08T18:04:14;6.70;1.00
29721;DHT22;23665;51.044;3.748;2023-02-08T18:06:39;6.60;85.30
29721;DHT22;23665;51.044;3.748;2023-02-08T18:09:05;6.40;98.10
29721;DHT22;23665;51.044;3.748;2023-02-08T18:11:31;6.20;99.90